Details From HKMO - Mombasa Moi Intl
To HTDA - Mwalimu Julius K Nyerere Intl
Flight Number -
Tags Generated
Created
Modified
Stats Distance 172 nm / 319 km
Max Altitude 0 ft / 0 m
Waypoints 2
Social Downloads 1
Likes 0
Share VATSIM

Download

Looking for another format? Having issues loading an existing format? Contact us
Advertisement - Login to hide

Notes

Generated

Route

HKMO HTDA

ID Type Via Altitude Latitude Longitude Leg Dist Tot Dist Heading (true) Name
O HKMO APT - 0 ft / 0 m -4.02983˚ 39.59137˚ - 0 nm - -
O HTDA APT - 0 ft / 0 m -6.87359˚ 39.19790˚ 172 nm 172 nm 188° / 188° -

Altitude Profile

Advertisement - Login to hide

Weather


0- 5 10 15 20 25 30 35+ Temperature / ° C

Clouds and Precipitation
Forecast for 2017-09-26 06:00 UTC. Updated 2 hours ago

Ground ~20,000 ft ~40,000 ft Winds

HKMO

Details ICAO HKMO (MBA)
Name MOMBASA MOI INTL
Region Kenya
Timezone Africa/Nairobi (UTC+3.0)
Stats Elevation 200 ft / 61 m (AMSL)
Location -4.030744° 39.596732°
Runways 2
Magnetic Variation 0.942° W

METAR

HKMO 260600Z 24005KT 9999 SCT023 26/22 Q105 NOSIG

Decode

TAF

TAF HKMO 260500Z 2606/2712 24005KT 9999 FEW020 BECMG 2609/2612 15010KT FEW026 BECMG 2618/2621 18005KT FEW023 BECMG 2700/2706 00000KT FEW019 BECMG 2709/2712 13010KT FEW026

Decode

Departure Runways

ID Width Length Bearing (true) Bearing (mag) Surface Threshold Offset Overrun Length
03 151 ft / 46 m 11,040 ft / 3,365 m 29.14° 30.08° Asphalt 2,503 ft / 763 m 197 ft / 60 m
15 118 ft / 36 m 4,492 ft / 1,369 m 150.47° 151.41° Asphalt 0 ft / 0 m 190 ft / 58 m
21 151 ft / 46 m 11,040 ft / 3,365 m 209.14° 210.08° Asphalt 0 ft / 0 m 197 ft / 60 m
33 118 ft / 36 m 4,492 ft / 1,369 m 330.47° 331.41° Asphalt 0 ft / 0 m 250 ft / 76 m

HTDA

Details ICAO HTDA (DAR)
Name MWALIMU JULIUS K NYERERE INTL
Region Tanzania
Timezone Africa/Dar_es_Salaam (UTC+3.0)
Stats Elevation 182 ft / 55 m (AMSL)
Location -6.875048° 39.204265°
Runways 2
Magnetic Variation 2.129° W

METAR

HTDA 260600Z 06005KT 9999 FEW016 BKN018 26/23 Q1016 NOSIG

Decode

TAF

TAF HTDA 260500Z 2606/2712 08010KT 9999 SCT024 BECMG 2618/2621 00000KT FEW013

Decode

Destination Runways

ID Width Length Bearing (true) Bearing (mag) Surface Threshold Offset Overrun Length
05 151 ft / 46 m 9,868 ft / 3,008 m 44.94° 47.07° Asphalt 0 ft / 0 m 197 ft / 60 m
14 98 ft / 30 m 3,303 ft / 1,007 m 135.15° 137.28° Asphalt 0 ft / 0 m 0 ft / 0 m
23 151 ft / 46 m 9,868 ft / 3,008 m 224.94° 227.07° Asphalt 0 ft / 0 m 197 ft / 60 m
32 98 ft / 30 m 3,303 ft / 1,007 m 315.15° 317.28° Asphalt 0 ft / 0 m 299 ft / 91 m

Approach Navaids

Runway Type Ident Frequency Range Bearing (true) Bearing (mag) Slope Elevation
05 Localiser DL 110.50 MHz 18 nm / 33 km 44.91° 47.04° - 54 ft / 16 m (AMSL)
05 Glidescope DL 110.50 MHz 10 nm / 19 km 44.94° 47.07° 3.00° 54 ft / 16 m (AMSL)

Popular Alternatives